createdAt,value
2023-03-02T00:01:47.036Z,8.57
2023-03-02T00:04:19.066Z,9.23
2023-03-02T00:06:49.517Z,8.60
2023-03-02T00:09:18.167Z,8.13
2023-03-02T00:11:46.636Z,8.20
2023-03-02T00:14:14.479Z,8.37
2023-03-02T00:16:42.179Z,8.37
2023-03-02T00:19:09.979Z,9.27
2023-03-02T00:21:37.761Z,7.20
2023-03-02T00:24:07.855Z,8.83
2023-03-02T00:26:35.759Z,8.30
2023-03-02T00:29:04.810Z,9.10
2023-03-02T00:31:32.644Z,8.63
2023-03-02T00:34:00.556Z,8.47
2023-03-02T00:36:28.307Z,8.43
2023-03-02T00:38:57.450Z,9.30
2023-03-02T00:41:26.562Z,8.80
2023-03-02T00:43:54.363Z,8.80
2023-03-02T00:46:24.312Z,8.77
2023-03-02T00:48:52.624Z,8.33
2023-03-02T00:51:20.918Z,8.60
2023-03-02T00:53:48.674Z,8.07
2023-03-02T00:56:16.469Z,8.20
2023-03-02T00:58:50.451Z,8.47
2023-03-02T01:01:18.824Z,8.23
2023-03-02T01:03:50.286Z,8.43
2023-03-02T01:06:21.592Z,8.80
2023-03-02T01:08:49.679Z,8.43
2023-03-02T01:11:19.773Z,9.40
2023-03-02T01:13:48.271Z,7.63
2023-03-02T01:16:17.696Z,9.40
2023-03-02T01:18:45.575Z,9.07
2023-03-02T01:21:15.361Z,9.10
2023-03-02T01:23:43.783Z,8.50
2023-03-02T01:26:12.757Z,8.40
2023-03-02T01:28:40.553Z,8.97
2023-03-02T01:31:08.473Z,8.73
2023-03-02T01:33:37.662Z,8.43
2023-03-02T01:36:06.090Z,8.17
2023-03-02T01:38:33.928Z,9.07
2023-03-02T01:41:01.751Z,8.53
2023-03-02T01:43:30.199Z,8.87
2023-03-02T01:46:02.768Z,7.53
2023-03-02T01:48:55.576Z,7.80
2023-03-02T01:51:48.705Z,7.03
2023-03-02T01:54:23.839Z,7.40
2023-03-02T01:57:00.605Z,7.60
2023-03-02T01:59:32.200Z,7.73
2023-03-02T02:02:03.654Z,7.67
2023-03-02T02:04:35.478Z,7.30
2023-03-02T02:07:05.525Z,8.23
2023-03-02T02:09:38.294Z,7.80
2023-03-02T02:12:06.806Z,7.20
2023-03-02T02:14:35.188Z,7.80
2023-03-02T02:17:03.381Z,7.80
2023-03-02T02:19:45.949Z,7.80
2023-03-02T02:22:22.467Z,8.33
2023-03-02T02:24:57.364Z,8.20
2023-03-02T02:27:33.635Z,8.47
2023-03-02T02:30:04.046Z,7.43
2023-03-02T02:32:36.102Z,7.57
2023-03-02T02:35:08.050Z,7.33
2023-03-02T02:37:42.363Z,8.30
2023-03-02T02:40:16.403Z,8.23
2023-03-02T02:42:48.993Z,7.63
2023-03-02T02:45:24.012Z,7.17
2023-03-02T02:47:53.459Z,8.07
2023-03-02T02:50:25.127Z,8.07
2023-03-02T02:52:58.410Z,7.60
2023-03-02T02:55:27.706Z,6.93
2023-03-02T02:58:00.479Z,7.50
2023-03-02T03:00:28.529Z,7.53
2023-03-02T03:03:06.081Z,8.10
2023-03-02T03:05:33.893Z,8.47
2023-03-02T03:08:09.566Z,8.00
2023-03-02T03:10:41.195Z,8.37
2023-03-02T03:13:12.510Z,8.53
2023-03-02T03:15:40.248Z,7.77
2023-03-02T03:18:09.078Z,7.90
2023-03-02T03:20:36.828Z,8.27
2023-03-02T03:23:04.761Z,8.37
2023-03-02T03:25:34.965Z,7.97
2023-03-02T03:28:03.996Z,8.23
2023-03-02T03:30:34.431Z,8.13
2023-03-02T03:33:02.648Z,8.77
2023-03-02T03:35:31.010Z,8.13
2023-03-02T03:37:59.152Z,7.90
2023-03-02T03:40:29.067Z,8.10
2023-03-02T03:42:57.204Z,7.20
2023-03-02T03:45:25.129Z,8.00
2023-03-02T03:47:54.461Z,8.43
2023-03-02T03:50:23.498Z,8.03
2023-03-02T03:52:51.558Z,8.13
2023-03-02T03:55:28.346Z,7.63
2023-03-02T03:57:56.622Z,8.40
2023-03-02T04:00:25.243Z,7.90
2023-03-02T04:03:00.453Z,8.33
2023-03-02T04:05:31.748Z,8.17
2023-03-02T04:08:02.098Z,8.30
2023-03-02T04:10:31.289Z,7.50
2023-03-02T04:12:59.403Z,8.67
2023-03-02T04:15:28.389Z,8.57
2023-03-02T04:17:57.620Z,7.97
2023-03-02T04:20:28.873Z,8.43
2023-03-02T04:22:58.731Z,8.43
2023-03-02T04:25:29.440Z,7.40
2023-03-02T04:28:02.335Z,8.90
2023-03-02T04:30:35.381Z,8.23
2023-03-02T04:33:03.272Z,8.00
2023-03-02T04:35:33.971Z,8.23
2023-03-02T04:38:03.222Z,7.87
2023-03-02T04:40:31.418Z,7.60
2023-03-02T04:42:59.200Z,8.50
2023-03-02T04:45:26.992Z,8.10
2023-03-02T04:47:54.721Z,8.43
2023-03-02T04:50:22.815Z,7.77
2023-03-02T04:52:53.651Z,7.47
2023-03-02T04:55:23.683Z,9.73
2023-03-02T04:57:51.704Z,8.90
2023-03-02T05:00:21.687Z,7.87
2023-03-02T05:02:49.672Z,8.60
2023-03-02T05:05:19.594Z,7.87
2023-03-02T05:07:48.140Z,8.33
2023-03-02T05:10:18.652Z,7.87
2023-03-02T05:12:57.838Z,8.10
2023-03-02T05:15:27.192Z,7.77
2023-03-02T05:17:55.024Z,8.37
2023-03-02T05:20:27.389Z,8.07
2023-03-02T05:22:56.472Z,8.20
2023-03-02T05:25:26.888Z,8.13
2023-03-02T05:27:54.736Z,8.40
2023-03-02T05:30:24.200Z,7.17
2023-03-02T05:32:53.398Z,8.87
2023-03-02T05:35:22.685Z,8.60
2023-03-02T05:37:50.715Z,8.57
2023-03-02T05:40:21.173Z,8.73
2023-03-02T05:42:50.657Z,8.20
2023-03-02T05:45:21.554Z,8.40
2023-03-02T05:47:49.316Z,8.40
2023-03-02T05:50:17.546Z,8.27
2023-03-02T05:52:46.387Z,8.40
2023-03-02T05:55:14.759Z,7.77
2023-03-02T05:57:42.685Z,8.67
2023-03-02T06:00:15.570Z,8.50
2023-03-02T06:02:44.218Z,8.57
2023-03-02T06:05:15.326Z,8.43
2023-03-02T06:07:43.981Z,8.23
2023-03-02T06:10:13.656Z,7.80
2023-03-02T06:12:42.912Z,7.63
2023-03-02T06:15:12.088Z,7.43
2023-03-02T06:17:40.003Z,8.23
2023-03-02T06:20:10.976Z,8.37
2023-03-02T06:22:41.209Z,8.27
2023-03-02T06:25:10.400Z,7.83
2023-03-02T06:27:39.246Z,7.87
2023-03-02T06:30:08.541Z,8.10
2023-03-02T06:32:37.740Z,7.87
2023-03-02T06:35:06.825Z,8.20
2023-03-02T06:37:34.798Z,8.07
2023-03-02T06:40:02.551Z,8.03
2023-03-02T06:42:30.484Z,8.27
2023-03-02T06:44:58.244Z,7.43
2023-03-02T06:47:26.064Z,8.87
2023-03-02T06:49:55.179Z,7.90
2023-03-02T06:52:23.090Z,8.87
2023-03-02T06:54:50.842Z,8.77
2023-03-02T06:57:18.651Z,8.60
2023-03-02T06:59:46.410Z,8.67
2023-03-02T07:02:14.358Z,8.10
2023-03-02T07:04:42.089Z,8.90
2023-03-02T07:07:11.270Z,9.43
2023-03-02T07:09:39.044Z,8.80
2023-03-02T07:12:07.377Z,8.87
2023-03-02T07:14:36.349Z,9.53
2023-03-02T07:17:05.329Z,8.80
2023-03-02T07:19:33.093Z,9.17
2023-03-02T07:22:01.078Z,9.33
2023-03-02T07:24:30.226Z,9.83
2023-03-02T07:26:57.969Z,10.10
2023-03-02T07:29:25.786Z,10.50
2023-03-02T07:31:57.138Z,8.97
2023-03-02T07:34:25.649Z,8.93
2023-03-02T07:36:54.126Z,9.53
2023-03-02T07:39:22.045Z,9.60
2023-03-02T07:41:51.268Z,10.70
2023-03-02T07:44:22.161Z,10.83
2023-03-02T07:46:49.989Z,9.80
2023-03-02T07:49:19.716Z,9.33
2023-03-02T07:51:47.477Z,10.47
2023-03-02T07:54:15.204Z,10.10
2023-03-02T07:56:43.052Z,10.67
2023-03-02T07:59:12.446Z,9.40
2023-03-02T08:01:41.909Z,9.70
2023-03-02T08:04:09.634Z,9.63
2023-03-02T08:06:37.431Z,8.83
2023-03-02T08:09:05.604Z,9.53
2023-03-02T08:11:33.697Z,10.00
2023-03-02T08:14:02.182Z,9.80
2023-03-02T08:16:31.860Z,9.43
2023-03-02T08:19:00.116Z,9.33
2023-03-02T08:21:29.268Z,9.50
2023-03-02T08:23:58.392Z,9.53
2023-03-02T08:26:26.188Z,10.60
2023-03-02T08:28:53.953Z,9.67
2023-03-02T08:31:21.715Z,9.90
2023-03-02T08:33:50.967Z,11.17
2023-03-02T08:36:20.680Z,10.10
2023-03-02T08:38:49.902Z,11.07
2023-03-02T08:41:20.029Z,9.63
2023-03-02T08:43:48.026Z,9.03
2023-03-02T08:46:18.215Z,8.70
2023-03-02T08:48:46.318Z,8.97
2023-03-02T08:51:17.430Z,8.73
2023-03-02T08:53:47.229Z,8.17
2023-03-02T08:56:20.083Z,8.27
2023-03-02T08:58:48.675Z,8.90
2023-03-02T09:01:18.338Z,8.37
2023-03-02T09:03:46.215Z,9.03
2023-03-02T09:06:16.279Z,8.57
2023-03-02T09:08:44.276Z,9.77
2023-03-02T09:11:12.188Z,9.03
2023-03-02T09:13:40.196Z,8.97
2023-03-02T09:16:09.405Z,9.30
2023-03-02T09:18:37.568Z,8.23
2023-03-02T09:21:06.336Z,9.07
2023-03-02T09:23:36.585Z,9.30
2023-03-02T09:26:05.163Z,8.60
2023-03-02T09:28:33.230Z,8.60
2023-03-02T09:31:02.644Z,8.17
2023-03-02T09:33:31.453Z,8.73
2023-03-02T09:35:59.685Z,8.20
2023-03-02T09:38:27.882Z,8.03
2023-03-02T09:41:14.073Z,8.00
2023-03-02T09:43:49.771Z,7.77
2023-03-02T09:46:21.901Z,8.00
2023-03-02T09:49:17.504Z,8.47
2023-03-02T09:51:51.459Z,8.63
2023-03-02T09:54:24.508Z,8.20
2023-03-02T09:56:56.018Z,8.23
2023-03-02T09:59:27.140Z,7.73
2023-03-02T10:02:01.283Z,8.20
2023-03-02T10:04:32.159Z,7.97
2023-03-02T10:07:11.581Z,7.70
2023-03-02T10:09:40.046Z,8.17
2023-03-02T10:12:28.345Z,7.83
2023-03-02T10:15:02.411Z,7.77
2023-03-02T10:17:44.088Z,8.00
2023-03-02T10:20:17.471Z,8.23
2023-03-02T10:22:51.125Z,7.77
2023-03-02T10:25:27.781Z,8.00
2023-03-02T10:28:02.834Z,8.43
2023-03-02T10:30:35.227Z,7.70
2023-03-02T10:33:09.287Z,8.30
2023-03-02T10:35:39.358Z,8.13
2023-03-02T10:38:13.608Z,8.77
2023-03-02T10:40:44.494Z,8.43
2023-03-02T10:43:18.834Z,8.17
2023-03-02T10:45:47.575Z,7.67
2023-03-02T10:48:16.068Z,8.10
2023-03-02T10:50:45.203Z,9.93
2023-03-02T10:53:18.894Z,7.97
2023-03-02T10:55:48.783Z,8.43
2023-03-02T10:58:25.774Z,8.73
2023-03-02T11:00:59.111Z,7.73
2023-03-02T11:03:27.615Z,8.40
2023-03-02T11:05:55.784Z,8.07
2023-03-02T11:08:27.469Z,7.57
2023-03-02T11:11:00.642Z,8.70
2023-03-02T11:13:32.459Z,8.40
2023-03-02T11:16:02.299Z,7.70
2023-03-02T11:18:33.987Z,8.13
2023-03-02T11:21:05.590Z,7.97
2023-03-02T11:23:41.924Z,8.23
2023-03-02T11:26:19.126Z,7.20
2023-03-02T11:28:55.809Z,7.33
2023-03-02T11:31:32.710Z,8.27
2023-03-02T11:34:17.302Z,7.93
2023-03-02T11:36:58.913Z,7.83
2023-03-02T11:39:32.709Z,7.10
2023-03-02T11:42:00.526Z,8.57
2023-03-02T11:44:29.856Z,8.20
2023-03-02T11:47:02.026Z,7.83
2023-03-02T11:49:38.940Z,7.60
2023-03-02T11:52:17.057Z,7.20
2023-03-02T11:54:47.642Z,7.60
2023-03-02T11:57:23.823Z,7.27
2023-03-02T11:59:54.694Z,7.63
2023-03-02T12:02:23.169Z,7.33
2023-03-02T12:04:50.967Z,6.80
2023-03-02T12:07:23.334Z,6.87
2023-03-02T12:10:02.609Z,6.80
2023-03-02T12:13:01.811Z,6.67
2023-03-02T12:15:41.398Z,7.67
2023-03-02T12:18:29.318Z,7.70
2023-03-02T12:21:02.745Z,6.83
2023-03-02T12:23:31.715Z,6.53
2023-03-02T12:26:07.020Z,6.70
2023-03-02T12:28:36.955Z,7.07
2023-03-02T12:31:10.804Z,7.00
2023-03-02T12:33:48.757Z,7.43
2023-03-02T12:36:23.673Z,6.87
2023-03-02T12:39:13.326Z,6.67
2023-03-02T12:41:55.612Z,7.40
2023-03-02T12:44:47.802Z,6.73
2023-03-02T12:47:26.105Z,6.43
2023-03-02T12:49:57.846Z,6.03
2023-03-02T12:52:32.861Z,6.37
2023-03-02T12:55:02.774Z,6.00
2023-03-02T12:57:31.482Z,5.83
2023-03-02T13:00:01.208Z,5.90
2023-03-02T13:02:34.337Z,6.07
2023-03-02T13:05:04.438Z,5.93
2023-03-02T13:07:41.234Z,6.73
2023-03-02T13:10:21.495Z,6.67
2023-03-02T13:12:49.449Z,6.30
2023-03-02T13:15:18.613Z,5.82
2023-03-02T13:17:54.815Z,5.97
2023-03-02T13:20:23.654Z,6.17
2023-03-02T13:22:51.562Z,6.70
2023-03-02T13:25:26.620Z,6.82
2023-03-02T13:27:57.026Z,5.78
2023-03-02T13:30:28.011Z,6.27
2023-03-02T13:33:02.805Z,6.45
2023-03-02T13:35:32.770Z,5.73
2023-03-02T13:38:04.566Z,5.97
2023-03-02T13:40:44.716Z,5.40
2023-03-02T13:43:24.017Z,6.15
2023-03-02T13:45:54.543Z,5.78
2023-03-02T13:48:24.114Z,5.90
2023-03-02T13:50:54.497Z,5.88
2023-03-02T13:53:24.247Z,5.32
2023-03-02T13:55:54.044Z,5.28
2023-03-02T13:58:24.405Z,5.65
2023-03-02T14:00:52.735Z,5.78
2023-03-02T14:03:26.146Z,5.32
2023-03-02T14:05:54.549Z,5.45
2023-03-02T14:08:22.482Z,5.13
2023-03-02T14:10:52.695Z,4.93
2023-03-02T14:13:22.957Z,5.28
2023-03-02T14:15:54.093Z,4.90
2023-03-02T14:18:32.581Z,4.93
2023-03-02T14:21:00.610Z,4.50
2023-03-02T14:23:28.851Z,5.53
2023-03-02T14:25:57.590Z,4.88
2023-03-02T14:28:29.007Z,4.80
2023-03-02T14:30:58.944Z,5.22
2023-03-02T14:33:28.412Z,7.10
2023-03-02T14:35:59.343Z,6.55
2023-03-02T14:38:28.180Z,4.78
2023-03-02T14:40:56.288Z,5.60
2023-03-02T14:43:25.238Z,5.15
2023-03-02T14:45:53.337Z,5.30
2023-03-02T14:48:21.206Z,4.75
2023-03-02T14:50:51.274Z,5.25
2023-03-02T14:53:23.194Z,4.65
2023-03-02T14:55:51.090Z,4.72
2023-03-02T14:58:20.994Z,5.65
2023-03-02T15:00:49.010Z,4.75
2023-03-02T15:03:19.350Z,4.47
2023-03-02T15:06:00.167Z,4.35
2023-03-02T15:08:30.406Z,4.90
2023-03-02T15:10:58.158Z,4.22
2023-03-02T15:13:25.893Z,3.90
2023-03-02T15:15:53.712Z,5.20
2023-03-02T15:18:21.425Z,4.97
2023-03-02T15:20:49.149Z,4.78
2023-03-02T15:23:16.861Z,4.50
2023-03-02T15:25:45.997Z,4.15
2023-03-02T15:28:13.872Z,3.75
2023-03-02T15:30:41.815Z,4.55
2023-03-02T15:33:09.549Z,3.60
2023-03-02T15:35:40.203Z,3.78
2023-03-02T15:38:07.983Z,4.03
2023-03-02T15:40:36.746Z,3.53
2023-03-02T15:43:05.904Z,3.47
2023-03-02T15:45:33.695Z,3.50
2023-03-02T15:48:01.475Z,3.88
2023-03-02T15:50:29.289Z,3.30
2023-03-02T15:52:57.430Z,3.73
2023-03-02T15:55:25.202Z,3.57
2023-03-02T15:57:53.536Z,3.50
2023-03-02T16:00:23.457Z,3.70
2023-03-02T16:02:51.285Z,3.42
2023-03-02T16:05:19.070Z,3.67
2023-03-02T16:07:46.851Z,3.30
2023-03-02T16:10:16.478Z,3.58
2023-03-02T16:12:44.316Z,3.20
2023-03-02T16:15:12.415Z,3.80
2023-03-02T16:17:43.251Z,3.55
2023-03-02T16:20:12.413Z,4.30
2023-03-02T16:22:40.266Z,3.77
2023-03-02T16:25:08.664Z,3.03
2023-03-02T16:27:36.346Z,3.33
2023-03-02T16:30:04.970Z,3.47
2023-03-02T16:32:33.991Z,3.45
2023-03-02T16:35:03.137Z,3.37
2023-03-02T16:37:30.916Z,3.57
2023-03-02T16:39:58.729Z,3.60
2023-03-02T16:42:28.400Z,3.85
2023-03-02T16:44:56.136Z,3.35
2023-03-02T16:47:23.848Z,4.13
2023-03-02T16:49:51.557Z,4.17
2023-03-02T16:52:20.610Z,3.63
2023-03-02T16:54:48.369Z,3.73
2023-03-02T16:57:16.090Z,3.30
2023-03-02T16:59:43.904Z,4.03
2023-03-02T17:02:12.193Z,3.60
2023-03-02T17:04:40.081Z,3.90
2023-03-02T17:07:08.665Z,3.60
2023-03-02T17:09:41.379Z,3.63
2023-03-02T17:12:12.542Z,3.73
2023-03-02T17:14:45.594Z,4.07
2023-03-02T17:17:15.706Z,3.83
2023-03-02T17:19:44.269Z,3.60
2023-03-02T17:22:14.990Z,3.87
2023-03-02T17:24:44.830Z,3.83
2023-03-02T17:27:24.178Z,4.50
2023-03-02T17:29:53.074Z,4.50
2023-03-02T17:32:21.350Z,4.30
2023-03-02T17:34:49.068Z,4.70
2023-03-02T17:37:17.518Z,4.60
2023-03-02T17:39:46.849Z,3.93
2023-03-02T17:42:14.601Z,4.60
2023-03-02T17:44:43.705Z,4.23
2023-03-02T17:47:11.642Z,4.43
2023-03-02T17:49:39.648Z,4.47
2023-03-02T17:52:07.935Z,4.53
2023-03-02T17:54:35.688Z,3.93
2023-03-02T17:57:04.875Z,4.53
2023-03-02T17:59:32.899Z,4.90
2023-03-02T18:02:00.711Z,4.70
2023-03-02T18:04:28.580Z,4.77
2023-03-02T18:06:56.324Z,4.40
2023-03-02T18:09:24.170Z,4.73
2023-03-02T18:11:51.943Z,4.73
2023-03-02T18:14:21.849Z,5.00
2023-03-02T18:16:49.664Z,5.23
2023-03-02T18:19:17.439Z,4.43
2023-03-02T18:21:45.383Z,5.30
2023-03-02T18:24:13.493Z,5.67
2023-03-02T18:26:41.773Z,5.43
2023-03-02T18:29:09.545Z,4.57
2023-03-02T18:31:38.746Z,5.00
2023-03-02T18:34:06.558Z,4.77
2023-03-02T18:36:34.390Z,4.93
2023-03-02T18:39:03.339Z,5.43
2023-03-02T18:41:32.550Z,5.40
2023-03-02T18:44:03.770Z,6.20
2023-03-02T18:46:32.954Z,6.50
2023-03-02T18:49:04.165Z,7.07
2023-03-02T18:51:32.112Z,6.80
2023-03-02T18:53:59.807Z,7.43
2023-03-02T18:56:27.664Z,7.43
2023-03-02T18:58:55.481Z,7.53
2023-03-02T19:01:23.252Z,8.50
2023-03-02T19:03:51.029Z,9.30
2023-03-02T19:06:20.500Z,8.50
2023-03-02T19:08:48.307Z,8.70
2023-03-02T19:11:16.117Z,8.90
2023-03-02T19:13:43.956Z,9.07
2023-03-02T19:16:11.779Z,9.73
2023-03-02T19:18:39.860Z,10.47
2023-03-02T19:21:07.769Z,10.87
2023-03-02T19:23:36.967Z,11.23
2023-03-02T19:26:05.611Z,11.93
2023-03-02T19:28:34.156Z,11.10
2023-03-02T19:31:03.804Z,12.03
2023-03-02T19:33:31.591Z,11.87
2023-03-02T19:35:59.550Z,11.77
2023-03-02T19:38:29.253Z,10.87
2023-03-02T19:41:00.250Z,11.40
2023-03-02T19:43:28.317Z,11.90
2023-03-02T19:45:56.507Z,12.53
2023-03-02T19:48:29.842Z,13.17
2023-03-02T19:50:57.829Z,12.77
2023-03-02T19:53:25.544Z,12.70
2023-03-02T19:55:53.296Z,13.23
2023-03-02T19:58:23.413Z,14.20
2023-03-02T20:00:51.399Z,14.70
2023-03-02T20:03:19.178Z,14.37
2023-03-02T20:05:46.961Z,14.50
2023-03-02T20:08:16.740Z,14.33
2023-03-02T20:10:46.628Z,14.37
2023-03-02T20:13:14.934Z,14.40
2023-03-02T20:15:46.101Z,15.30
2023-03-02T20:18:16.461Z,14.63
2023-03-02T20:20:45.199Z,14.90
2023-03-02T20:23:13.477Z,15.60
2023-03-02T20:25:41.346Z,14.53
2023-03-02T20:28:11.805Z,15.53
2023-03-02T20:30:42.567Z,16.50
2023-03-02T20:33:13.143Z,14.60
2023-03-02T20:35:43.647Z,15.13
2023-03-02T20:38:16.020Z,15.77
2023-03-02T20:40:44.616Z,16.80
2023-03-02T20:43:12.803Z,15.17
2023-03-02T20:45:41.176Z,15.97
2023-03-02T20:48:09.004Z,16.17
2023-03-02T20:50:38.623Z,17.30
2023-03-02T20:53:10.077Z,17.17
2023-03-02T20:55:37.820Z,16.13
2023-03-02T20:58:06.394Z,15.93
2023-03-02T21:00:36.583Z,17.67
2023-03-02T21:03:05.412Z,17.30
2023-03-02T21:05:35.008Z,16.97
2023-03-02T21:08:04.251Z,16.93
2023-03-02T21:10:35.525Z,16.60
2023-03-02T21:13:03.529Z,15.80
2023-03-02T21:15:32.195Z,16.60
2023-03-02T21:18:00.449Z,16.77
2023-03-02T21:20:31.384Z,16.23
2023-03-02T21:22:59.327Z,16.40
2023-03-02T21:25:28.992Z,16.43
2023-03-02T21:27:56.850Z,17.17
2023-03-02T21:30:27.974Z,16.63
2023-03-02T21:32:55.771Z,16.73
2023-03-02T21:35:24.185Z,17.43
2023-03-02T21:37:54.754Z,18.50
2023-03-02T21:40:26.352Z,17.97
2023-03-02T21:42:55.997Z,17.43
2023-03-02T21:45:24.176Z,18.13
2023-03-02T21:47:52.038Z,18.80
2023-03-02T21:50:22.452Z,18.13
2023-03-02T21:52:50.670Z,17.90
2023-03-02T21:55:18.567Z,18.17
2023-03-02T21:57:46.419Z,17.97
2023-03-02T22:00:22.647Z,17.43
2023-03-02T22:02:51.083Z,18.27
2023-03-02T22:05:19.218Z,19.27
2023-03-02T22:07:47.625Z,18.97
2023-03-02T22:10:25.680Z,20.07
2023-03-02T22:12:56.195Z,19.03
2023-03-02T22:15:25.267Z,19.50
2023-03-02T22:17:53.029Z,18.23
2023-03-02T22:20:21.276Z,18.60
2023-03-02T22:22:49.736Z,17.53
2023-03-02T22:25:19.640Z,18.20
2023-03-02T22:27:48.062Z,18.40
2023-03-02T22:30:19.698Z,17.30
2023-03-02T22:32:49.665Z,18.33
2023-03-02T22:35:23.605Z,19.10
2023-03-02T22:37:52.843Z,18.90
2023-03-02T22:40:30.375Z,19.70
2023-03-02T22:43:11.257Z,18.77
2023-03-02T22:45:40.641Z,19.77
2023-03-02T22:48:16.665Z,20.30
2023-03-02T22:50:45.950Z,19.60
2023-03-02T22:53:29.471Z,19.40
2023-03-02T22:55:59.576Z,18.90
2023-03-02T22:58:45.799Z,21.20
2023-03-02T23:01:21.821Z,20.80
2023-03-02T23:03:52.663Z,20.63
2023-03-02T23:06:27.581Z,20.97
2023-03-02T23:08:57.428Z,20.57
2023-03-02T23:11:25.885Z,21.53
2023-03-02T23:13:54.307Z,20.67
2023-03-02T23:16:24.115Z,21.80
2023-03-02T23:18:54.901Z,21.00
2023-03-02T23:21:28.251Z,21.77
2023-03-02T23:23:56.257Z,20.93
2023-03-02T23:26:24.022Z,20.93
2023-03-02T23:28:52.130Z,20.57
2023-03-02T23:31:21.195Z,20.30
2023-03-02T23:33:49.343Z,20.73
2023-03-02T23:36:21.117Z,21.33
2023-03-02T23:38:49.653Z,21.20
2023-03-02T23:41:18.349Z,21.00
2023-03-02T23:43:46.520Z,21.50
2023-03-02T23:46:14.573Z,20.70
2023-03-02T23:48:42.567Z,21.00
2023-03-02T23:51:10.919Z,21.07
2023-03-02T23:53:40.014Z,22.47
2023-03-02T23:56:08.373Z,21.53
2023-03-02T23:58:36.113Z,21.67
